Flight Track Log - Related Links

Times and Time Zones

All times are in EDT time to prevent confusion due to time zone crossing. See the RPA4911 flight status page for this flight to view local times or setup timezone preferences in your user account.

Time Position Orientation Groundspeed Altitude Reporting Facility
EDT Latitude Longitude Course Direction KTS MPH feet Rate Location/Type
Sat 06:09:57 AM 42.7658 -73.8053 North 183 211 1,400  Level Boston Center
Sat 06:10:09 AM 42.7792 -73.8039 North 181 208 1,900 2,632 Climbing Boston Center
Sat 06:10:54 AM 42.8122 -73.8231 337° Northwest 198 228 3,900 3,500 Climbing Boston Center
Sat 06:11:09 AM 42.8103 -73.8436 263° West 194 223 5,400 4,169 Climbing Boston Center
Sat 06:11:53 AM 42.7853 -73.8661 213° Southwest 163 188 8,000 3,581 Climbing Boston Center
Sat 06:12:11 AM 42.7711 -73.8711 195° South 162 186 9,100 2,136 Climbing Boston Center
Sat 06:12:52 AM 42.7339 -73.8825 193° South 178 205 10,100 577 Climbing Boston Center
Sat 06:13:55 AM 42.6631 -73.9103 196° South 266 306 10,100 -50 Level Boston Center
Sat 06:14:53 AM 42.5869 -73.9314 192° South 279 321 10,000 454 Descending Boston Center
Sat 06:15:54 AM 42.5111 -73.9528 192° South 278 320 11,000 1,645 Climbing Boston Center
Sat 06:16:57 AM 42.4419 -73.9711 191° South 256 295 13,400 1,512 Climbing Boston Center
Sat 06:17:57 AM 42.3717 -73.9928 193° South 261 300 14,100 305 Climbing Boston Center
Sat 06:18:55 AM 42.2889 -74.0172 192° South 302 348 14,000 -49 Descending Boston Center
Sat 06:19:59 AM 42.1997 -74.0472 194° South 307 353 14,000  Level Boston Center
Sat 06:20:57 AM 42.1203 -74.0850 199° South 311 358 14,000  Level Boston Center
Sat 06:22:00 AM 42.0400 -74.1192 198° South 305 351 14,000  Level Boston Center
Sat 06:22:58 AM 41.9597 -74.1528 197° South 303 349 14,000 -102 Level Boston Center
Sat 06:23:58 AM 41.8803 -74.1892 199° South 302 348 13,800 -645 Descending Boston Center
Sat 06:24:59 AM 41.7953 -74.2258 198° South 299 344 12,700 -1,016 Descending Boston Center
Sat 06:26:02 AM 41.7181 -74.2586 198° South 293 337 11,700 -968 Descending Boston Center
Sat 06:27:03 AM 41.6433 -74.2889 197° South 284 327 10,700 -1,000 Descending Boston Center
Sat 06:28:02 AM 41.5797 -74.3175 199° South 239 275 9,700 -950 Descending Boston Center
Sat 06:29:03 AM 41.5167 -74.3453 198° South 241 277 8,800 -1,024 Descending Boston Center
Sat 06:30:05 AM 41.4461 -74.3756 198° South 248 285 7,600 -1,024 Descending Boston Center
Sat 06:31:06 AM 41.3822 -74.4028 198° South 243 280 6,700 -891 Descending Boston Center
Sat 06:31:46 AM 41.3333 -74.4167 192° South 249 287 6,100 -360 Descending New York TRACON
Sat 06:32:46 AM 41.2667 -74.4500 201° Southwest 249 287 6,100  Level New York TRACON
Sat 06:33:40 AM 41.2167 -74.4833 207° Southwest 242 278 6,100  Level New York TRACON
Sat 06:34:34 AM 41.1500 -74.5000 191° South 241 277 6,100  Level New York TRACON
Sat 06:35:34 AM 41.0833 -74.5167 191° South 247 284 6,100 -200 Level New York TRACON
Sat 06:36:34 AM 41.0167 -74.5000 169° South 251 289 5,700 -500 Descending New York TRACON
Sat 06:37:34 AM 40.9500 -74.4833 169° South 261 300 5,100 -316 Descending New York TRACON
Sat 06:38:28 AM 40.8833 -74.4667 169° South 266 306 5,100  Level New York TRACON
Sat 06:39:28 AM 40.8167 -74.4500 169° South 263 303 5,100 -158 Level New York TRACON
Sat 06:40:22 AM 40.7500 -74.4500 180° South 262 302 4,800 -842 Descending New York TRACON
Sat 06:41:22 AM 40.6667 -74.4333 171° South 262 302 3,500 -850 Descending New York TRACON
Sat 06:42:22 AM 40.6000 -74.4333 180° South 253 291 3,100 -211 Descending New York TRACON
Sat 06:43:16 AM 40.5333 -74.4000 159° South 255 293 3,100  Level New York TRACON
Sat 06:44:16 AM 40.5333 -74.3167 90° East 246 283 3,100 -450 Level New York TRACON
Sat 06:45:16 AM 40.5667 -74.2333 62° Northeast 254 292 2,200 -800 Descending New York TRACON
Sat 06:46:16 AM 40.6167 -74.2167 14° North 165 190 1,500 -650 Descending New York TRACON
Sat 06:47:16 AM 40.6500 -74.2000 21° North 111 128 900 -600 Descending New York TRACON
Sat 06:48:16 AM 40.6667 -74.1833 37° Northeast 106 122 300 -600 Descending New York TRACON

Login

Don't have an account? Register now (free) for customized features, flight alerts, and more!